sensor_id;sensor_type;location;lat;lon;timestamp;P1;durP1;ratioP1;P2;durP2;ratioP2
6727;SDS011;3401;52.504;13.430;2022-07-12T00:02:21;1006.33;;;747.77;;
6727;SDS011;3401;52.504;13.430;2022-07-12T00:04:49;981.00;;;691.73;;
6727;SDS011;3401;52.504;13.430;2022-07-12T00:07:19;989.13;;;707.10;;
6727;SDS011;3401;52.504;13.430;2022-07-12T00:09:47;1048.73;;;772.00;;
6727;SDS011;3401;52.504;13.430;2022-07-12T00:12:15;981.53;;;791.13;;
6727;SDS011;3401;52.504;13.430;2022-07-12T00:14:43;990.77;;;796.53;;
6727;SDS011;3401;52.504;13.430;2022-07-12T00:17:11;1032.87;;;816.80;;
6727;SDS011;3401;52.504;13.430;2022-07-12T00:19:39;1014.40;;;780.47;;
6727;SDS011;3401;52.504;13.430;2022-07-12T00:22:06;946.93;;;863.37;;
6727;SDS011;3401;52.504;13.430;2022-07-12T00:24:35;964.93;;;871.00;;
6727;SDS011;3401;52.504;13.430;2022-07-12T00:27:03;586.83;;;532.70;;
6727;SDS011;3401;52.504;13.430;2022-07-12T00:29:31;768.23;;;693.60;;
6727;SDS011;3401;52.504;13.430;2022-07-12T00:31:59;841.90;;;754.40;;
6727;SDS011;3401;52.504;13.430;2022-07-12T00:34:27;903.60;;;824.60;;
6727;SDS011;3401;52.504;13.430;2022-07-12T00:36:55;828.03;;;752.07;;
6727;SDS011;3401;52.504;13.430;2022-07-12T00:39:23;604.80;;;552.87;;
6727;SDS011;3401;52.504;13.430;2022-07-12T00:41:52;915.00;;;821.23;;
6727;SDS011;3401;52.504;13.430;2022-07-12T00:44:23;955.87;;;866.87;;
6727;SDS011;3401;52.504;13.430;2022-07-12T00:46:56;954.93;;;878.73;;
6727;SDS011;3401;52.504;13.430;2022-07-12T00:49:24;958.23;;;820.23;;
6727;SDS011;3401;52.504;13.430;2022-07-12T00:51:52;774.90;;;564.77;;
6727;SDS011;3401;52.504;13.430;2022-07-12T00:54:20;365.40;;;333.93;;
6727;SDS011;3401;52.504;13.430;2022-07-12T00:56:48;755.73;;;695.57;;
6727;SDS011;3401;52.504;13.430;2022-07-12T00:59:17;941.70;;;862.60;;
6727;SDS011;3401;52.504;13.430;2022-07-12T01:01:45;955.30;;;861.60;;
6727;SDS011;3401;52.504;13.430;2022-07-12T01:04:13;952.80;;;854.80;;
6727;SDS011;3401;52.504;13.430;2022-07-12T01:06:44;992.43;;;854.87;;
6727;SDS011;3401;52.504;13.430;2022-07-12T01:09:12;1079.80;;;807.63;;
6727;SDS011;3401;52.504;13.430;2022-07-12T01:11:40;990.07;;;835.90;;
6727;SDS011;3401;52.504;13.430;2022-07-12T01:14:09;937.53;;;843.13;;
6727;SDS011;3401;52.504;13.430;2022-07-12T01:16:41;965.70;;;880.83;;
6727;SDS011;3401;52.504;13.430;2022-07-12T01:19:09;966.03;;;874.60;;
6727;SDS011;3401;52.504;13.430;2022-07-12T01:21:43;917.17;;;829.33;;
6727;SDS011;3401;52.504;13.430;2022-07-12T01:24:16;925.73;;;832.27;;
6727;SDS011;3401;52.504;13.430;2022-07-12T01:26:46;947.40;;;846.67;;
6727;SDS011;3401;52.504;13.430;2022-07-12T01:29:14;845.43;;;768.83;;
6727;SDS011;3401;52.504;13.430;2022-07-12T01:31:42;826.87;;;760.80;;
6727;SDS011;3401;52.504;13.430;2022-07-12T01:34:10;905.97;;;829.20;;
6727;SDS011;3401;52.504;13.430;2022-07-12T01:36:38;836.33;;;763.23;;
6727;SDS011;3401;52.504;13.430;2022-07-12T01:39:06;911.97;;;814.00;;
6727;SDS011;3401;52.504;13.430;2022-07-12T01:41:36;993.47;;;754.47;;
6727;SDS011;3401;52.504;13.430;2022-07-12T01:44:04;910.13;;;560.80;;
6727;SDS011;3401;52.504;13.430;2022-07-12T01:46:32;918.50;;;552.80;;
6727;SDS011;3401;52.504;13.430;2022-07-12T01:49:01;874.88;;;534.33;;
6727;SDS011;3401;52.504;13.430;2022-07-12T01:51:30;808.85;;;442.38;;
6727;SDS011;3401;52.504;13.430;2022-07-12T01:53:58;930.80;;;846.60;;
6727;SDS011;3401;52.504;13.430;2022-07-12T01:56:26;929.50;;;616.53;;
6727;SDS011;3401;52.504;13.430;2022-07-12T01:58:56;836.50;;;680.27;;
6727;SDS011;3401;52.504;13.430;2022-07-12T02:01:23;785.87;;;578.60;;
6727;SDS011;3401;52.504;13.430;2022-07-12T02:03:51;946.17;;;503.27;;
6727;SDS011;3401;52.504;13.430;2022-07-12T02:06:19;866.50;;;412.50;;
6727;SDS011;3401;52.504;13.430;2022-07-12T02:08:47;919.70;;;500.20;;
6727;SDS011;3401;52.504;13.430;2022-07-12T02:11:15;945.20;;;563.88;;
6727;SDS011;3401;52.504;13.430;2022-07-12T02:13:43;910.92;;;483.58;;
6727;SDS011;3401;52.504;13.430;2022-07-12T02:16:12;1050.33;;;748.73;;
6727;SDS011;3401;52.504;13.430;2022-07-12T02:18:40;972.90;;;578.23;;
6727;SDS011;3401;52.504;13.430;2022-07-12T02:21:08;909.30;;;474.37;;
6727;SDS011;3401;52.504;13.430;2022-07-12T02:23:35;974.90;;;638.87;;
6727;SDS011;3401;52.504;13.430;2022-07-12T02:26:06;873.30;;;618.53;;
6727;SDS011;3401;52.504;13.430;2022-07-12T02:28:34;878.97;;;584.93;;
6727;SDS011;3401;52.504;13.430;2022-07-12T02:31:05;847.23;;;581.57;;
6727;SDS011;3401;52.504;13.430;2022-07-12T02:33:34;846.63;;;483.93;;
6727;SDS011;3401;52.504;13.430;2022-07-12T02:36:06;807.53;;;565.60;;
6727;SDS011;3401;52.504;13.430;2022-07-12T02:38:34;752.23;;;576.13;;
6727;SDS011;3401;52.504;13.430;2022-07-12T02:41:05;803.57;;;579.37;;
6727;SDS011;3401;52.504;13.430;2022-07-12T02:43:34;853.20;;;748.23;;
6727;SDS011;3401;52.504;13.430;2022-07-12T02:46:06;819.13;;;542.37;;
6727;SDS011;3401;52.504;13.430;2022-07-12T02:48:36;825.73;;;500.67;;
6727;SDS011;3401;52.504;13.430;2022-07-12T02:51:07;800.93;;;575.70;;
6727;SDS011;3401;52.504;13.430;2022-07-12T02:53:36;868.63;;;563.93;;
6727;SDS011;3401;52.504;13.430;2022-07-12T02:56:07;884.77;;;545.30;;
6727;SDS011;3401;52.504;13.430;2022-07-12T02:58:36;871.40;;;491.43;;
6727;SDS011;3401;52.504;13.430;2022-07-12T03:01:07;884.20;;;593.20;;
6727;SDS011;3401;52.504;13.430;2022-07-12T03:03:36;905.40;;;629.07;;
6727;SDS011;3401;52.504;13.430;2022-07-12T03:06:07;662.67;;;608.63;;
6727;SDS011;3401;52.504;13.430;2022-07-12T03:08:35;859.70;;;531.10;;
6727;SDS011;3401;52.504;13.430;2022-07-12T03:11:05;837.23;;;539.40;;
6727;SDS011;3401;52.504;13.430;2022-07-12T03:13:33;792.83;;;548.83;;
6727;SDS011;3401;52.504;13.430;2022-07-12T03:16:01;776.63;;;694.33;;
6727;SDS011;3401;52.504;13.430;2022-07-12T03:18:37;787.60;;;706.97;;
6727;SDS011;3401;52.504;13.430;2022-07-12T03:21:06;585.43;;;526.43;;
6727;SDS011;3401;52.504;13.430;2022-07-12T03:23:34;875.10;;;579.87;;
6727;SDS011;3401;52.504;13.430;2022-07-12T03:26:06;822.87;;;469.40;;
6727;SDS011;3401;52.504;13.430;2022-07-12T03:28:34;900.60;;;492.50;;
6727;SDS011;3401;52.504;13.430;2022-07-12T03:31:02;901.80;;;421.00;;
6727;SDS011;3401;52.504;13.430;2022-07-12T03:33:37;892.10;;;442.37;;
6727;SDS011;3401;52.504;13.430;2022-07-12T03:36:05;889.67;;;419.57;;
6727;SDS011;3401;52.504;13.430;2022-07-12T03:38:34;877.77;;;418.83;;
6727;SDS011;3401;52.504;13.430;2022-07-12T03:41:06;890.40;;;432.00;;
6727;SDS011;3401;52.504;13.430;2022-07-12T03:43:34;886.83;;;424.67;;
6727;SDS011;3401;52.504;13.430;2022-07-12T03:46:05;880.97;;;435.73;;
6727;SDS011;3401;52.504;13.430;2022-07-12T03:48:33;880.73;;;440.10;;
6727;SDS011;3401;52.504;13.430;2022-07-12T03:51:05;873.63;;;394.40;;
6727;SDS011;3401;52.504;13.430;2022-07-12T03:53:32;890.77;;;457.47;;
6727;SDS011;3401;52.504;13.430;2022-07-12T03:56:01;861.27;;;417.03;;
6727;SDS011;3401;52.504;13.430;2022-07-12T03:58:35;849.40;;;420.57;;
6727;SDS011;3401;52.504;13.430;2022-07-12T04:01:06;788.27;;;448.00;;
6727;SDS011;3401;52.504;13.430;2022-07-12T04:03:34;814.33;;;492.13;;
6727;SDS011;3401;52.504;13.430;2022-07-12T04:06:07;686.37;;;410.80;;
6727;SDS011;3401;52.504;13.430;2022-07-12T04:08:35;691.63;;;406.37;;
6727;SDS011;3401;52.504;13.430;2022-07-12T04:11:06;449.53;;;415.40;;
6727;SDS011;3401;52.504;13.430;2022-07-12T04:13:33;287.13;;;268.17;;
6727;SDS011;3401;52.504;13.430;2022-07-12T04:16:01;469.93;;;435.00;;
6727;SDS011;3401;52.504;13.430;2022-07-12T04:18:35;595.20;;;548.03;;
6727;SDS011;3401;52.504;13.430;2022-07-12T04:21:10;461.87;;;425.33;;
6727;SDS011;3401;52.504;13.430;2022-07-12T04:23:39;436.17;;;402.73;;
6727;SDS011;3401;52.504;13.430;2022-07-12T04:26:07;329.47;;;306.70;;
6727;SDS011;3401;52.504;13.430;2022-07-12T04:28:35;288.57;;;269.43;;
6727;SDS011;3401;52.504;13.430;2022-07-12T04:31:05;214.40;;;199.53;;
6727;SDS011;3401;52.504;13.430;2022-07-12T04:33:33;221.00;;;207.30;;
6727;SDS011;3401;52.504;13.430;2022-07-12T04:36:05;132.73;;;124.67;;
6727;SDS011;3401;52.504;13.430;2022-07-12T04:38:34;517.07;;;470.43;;
6727;SDS011;3401;52.504;13.430;2022-07-12T04:41:05;538.73;;;492.90;;
6727;SDS011;3401;52.504;13.430;2022-07-12T04:43:33;511.50;;;467.30;;
6727;SDS011;3401;52.504;13.430;2022-07-12T04:46:05;584.33;;;530.40;;
6727;SDS011;3401;52.504;13.430;2022-07-12T04:48:33;605.50;;;554.60;;
6727;SDS011;3401;52.504;13.430;2022-07-12T04:51:07;646.83;;;588.50;;
6727;SDS011;3401;52.504;13.430;2022-07-12T04:53:37;460.60;;;423.10;;
6727;SDS011;3401;52.504;13.430;2022-07-12T04:56:05;474.37;;;435.73;;
6727;SDS011;3401;52.504;13.430;2022-07-12T04:58:33;321.90;;;296.53;;
6727;SDS011;3401;52.504;13.430;2022-07-12T05:01:01;150.33;;;138.97;;
6727;SDS011;3401;52.504;13.430;2022-07-12T05:03:35;346.90;;;321.50;;
6727;SDS011;3401;52.504;13.430;2022-07-12T05:06:09;200.53;;;188.23;;
6727;SDS011;3401;52.504;13.430;2022-07-12T05:08:38;261.47;;;244.23;;
6727;SDS011;3401;52.504;13.430;2022-07-12T05:11:06;303.60;;;282.13;;
6727;SDS011;3401;52.504;13.430;2022-07-12T05:13:34;3.40;;;2.53;;
6727;SDS011;3401;52.504;13.430;2022-07-12T05:16:01;3.27;;;2.20;;
6727;SDS011;3401;52.504;13.430;2022-07-12T05:18:38;4.27;;;2.30;;
6727;SDS011;3401;52.504;13.430;2022-07-12T05:21:06;3.03;;;1.70;;
6727;SDS011;3401;52.504;13.430;2022-07-12T05:23:34;5.10;;;2.43;;
6727;SDS011;3401;52.504;13.430;2022-07-12T05:26:06;2.33;;;1.60;;
6727;SDS011;3401;52.504;13.430;2022-07-12T05:28:41;12.13;;;2.23;;
6727;SDS011;3401;52.504;13.430;2022-07-12T05:31:10;2.53;;;1.80;;
6727;SDS011;3401;52.504;13.430;2022-07-12T05:33:38;2.87;;;1.87;;
6727;SDS011;3401;52.504;13.430;2022-07-12T05:36:05;2.83;;;1.97;;
6727;SDS011;3401;52.504;13.430;2022-07-12T05:38:33;1.60;;;1.33;;
6727;SDS011;3401;52.504;13.430;2022-07-12T05:41:01;3.30;;;2.03;;
6727;SDS011;3401;52.504;13.430;2022-07-12T05:43:36;1.27;;;1.17;;
6727;SDS011;3401;52.504;13.430;2022-07-12T05:46:07;2.77;;;1.87;;
6727;SDS011;3401;52.504;13.430;2022-07-12T05:48:36;2.10;;;0.70;;
6727;SDS011;3401;52.504;13.430;2022-07-12T05:51:07;8.33;;;1.87;;
6727;SDS011;3401;52.504;13.430;2022-07-12T05:53:52;5.30;;;1.70;;
6727;SDS011;3401;52.504;13.430;2022-07-12T05:56:21;10.07;;;5.40;;
6727;SDS011;3401;52.504;13.430;2022-07-12T05:58:49;1.47;;;1.17;;
6727;SDS011;3401;52.504;13.430;2022-07-12T06:01:17;6.00;;;2.63;;
6727;SDS011;3401;52.504;13.430;2022-07-12T06:03:45;4.10;;;1.73;;
6727;SDS011;3401;52.504;13.430;2022-07-12T06:06:13;13.90;;;3.80;;
6727;SDS011;3401;52.504;13.430;2022-07-12T06:08:41;4.70;;;1.67;;
6727;SDS011;3401;52.504;13.430;2022-07-12T06:11:09;0.93;;;0.83;;
6727;SDS011;3401;52.504;13.430;2022-07-12T06:13:38;1.57;;;1.40;;
6727;SDS011;3401;52.504;13.430;2022-07-12T06:16:06;1.77;;;1.20;;
6727;SDS011;3401;52.504;13.430;2022-07-12T06:18:36;4.73;;;2.00;;
6727;SDS011;3401;52.504;13.430;2022-07-12T06:21:07;1.90;;;1.47;;
6727;SDS011;3401;52.504;13.430;2022-07-12T06:23:35;3.10;;;1.40;;
6727;SDS011;3401;52.504;13.430;2022-07-12T06:26:06;3.77;;;2.60;;
6727;SDS011;3401;52.504;13.430;2022-07-12T06:28:34;1.63;;;1.10;;
6727;SDS011;3401;52.504;13.430;2022-07-12T06:31:07;2.07;;;1.63;;
6727;SDS011;3401;52.504;13.430;2022-07-12T06:33:35;1.33;;;1.23;;
6727;SDS011;3401;52.504;13.430;2022-07-12T06:36:06;4.20;;;1.90;;
6727;SDS011;3401;52.504;13.430;2022-07-12T06:38:34;1.43;;;1.33;;
6727;SDS011;3401;52.504;13.430;2022-07-12T06:41:10;2.33;;;1.67;;
6727;SDS011;3401;52.504;13.430;2022-07-12T06:43:38;3.10;;;1.43;;
6727;SDS011;3401;52.504;13.430;2022-07-12T06:46:09;4.30;;;1.83;;
6727;SDS011;3401;52.504;13.430;2022-07-12T06:48:36;3.43;;;1.73;;
6727;SDS011;3401;52.504;13.430;2022-07-12T06:51:05;3.90;;;1.37;;
6727;SDS011;3401;52.504;13.430;2022-07-12T06:53:33;114.70;;;106.33;;
6727;SDS011;3401;52.504;13.430;2022-07-12T06:56:07;3.93;;;3.47;;
6727;SDS011;3401;52.504;13.430;2022-07-12T06:58:35;59.30;;;55.27;;
6727;SDS011;3401;52.504;13.430;2022-07-12T07:01:06;123.77;;;115.87;;
6727;SDS011;3401;52.504;13.430;2022-07-12T07:03:35;132.53;;;123.80;;
6727;SDS011;3401;52.504;13.430;2022-07-12T07:06:06;96.73;;;89.90;;
6727;SDS011;3401;52.504;13.430;2022-07-12T07:08:34;109.50;;;102.20;;
6727;SDS011;3401;52.504;13.430;2022-07-12T07:11:10;5.57;;;2.33;;
6727;SDS011;3401;52.504;13.430;2022-07-12T07:13:38;3.40;;;2.27;;
6727;SDS011;3401;52.504;13.430;2022-07-12T07:16:11;2.23;;;1.80;;
6727;SDS011;3401;52.504;13.430;2022-07-12T07:18:41;6.33;;;1.97;;
6727;SDS011;3401;52.504;13.430;2022-07-12T07:21:09;4.87;;;2.80;;
6727;SDS011;3401;52.504;13.430;2022-07-12T07:23:37;3.33;;;2.30;;
6727;SDS011;3401;52.504;13.430;2022-07-12T07:26:05;2.87;;;2.00;;
6727;SDS011;3401;52.504;13.430;2022-07-12T07:28:33;3.43;;;2.37;;
6727;SDS011;3401;52.504;13.430;2022-07-12T07:31:21;2.50;;;1.80;;
6727;SDS011;3401;52.504;13.430;2022-07-12T07:33:49;2.90;;;1.83;;
6727;SDS011;3401;52.504;13.430;2022-07-12T07:36:17;4.80;;;2.90;;
6727;SDS011;3401;52.504;13.430;2022-07-12T07:38:45;4.93;;;2.70;;
6727;SDS011;3401;52.504;13.430;2022-07-12T07:41:13;4.00;;;1.97;;
6727;SDS011;3401;52.504;13.430;2022-07-12T07:43:41;102.20;;;34.72;;
6727;SDS011;3401;52.504;13.430;2022-07-12T07:46:09;83.68;;;31.17;;
6727;SDS011;3401;52.504;13.430;2022-07-12T07:48:37;78.35;;;31.40;;
6727;SDS011;3401;52.504;13.430;2022-07-12T07:51:06;74.72;;;32.50;;
6727;SDS011;3401;52.504;13.430;2022-07-12T07:53:34;58.67;;;29.15;;
6727;SDS011;3401;52.504;13.430;2022-07-12T07:56:05;59.05;;;29.58;;
6727;SDS011;3401;52.504;13.430;2022-07-12T07:58:33;76.70;;;33.55;;
6727;SDS011;3401;52.504;13.430;2022-07-12T08:01:01;62.97;;;30.55;;
6727;SDS011;3401;52.504;13.430;2022-07-12T08:03:36;76.40;;;29.98;;
6727;SDS011;3401;52.504;13.430;2022-07-12T08:06:06;52.53;;;26.95;;
6727;SDS011;3401;52.504;13.430;2022-07-12T08:08:34;16.17;;;14.67;;
6727;SDS011;3401;52.504;13.430;2022-07-12T08:11:22;30.80;;;20.63;;
6727;SDS011;3401;52.504;13.430;2022-07-12T08:13:50;34.73;;;23.33;;
6727;SDS011;3401;52.504;13.430;2022-07-12T08:16:18;35.33;;;22.60;;
6727;SDS011;3401;52.504;13.430;2022-07-12T08:18:46;37.13;;;23.50;;
6727;SDS011;3401;52.504;13.430;2022-07-12T08:21:15;37.83;;;23.13;;
6727;SDS011;3401;52.504;13.430;2022-07-12T08:23:43;35.90;;;23.33;;
6727;SDS011;3401;52.504;13.430;2022-07-12T08:26:11;35.63;;;22.70;;
6727;SDS011;3401;52.504;13.430;2022-07-12T08:28:39;37.67;;;23.37;;
6727;SDS011;3401;52.504;13.430;2022-07-12T08:31:07;36.50;;;22.73;;
6727;SDS011;3401;52.504;13.430;2022-07-12T08:33:36;35.27;;;23.03;;
6727;SDS011;3401;52.504;13.430;2022-07-12T08:36:07;36.63;;;23.13;;
6727;SDS011;3401;52.504;13.430;2022-07-12T08:38:38;36.03;;;23.43;;
6727;SDS011;3401;52.504;13.430;2022-07-12T08:41:08;36.70;;;23.90;;
6727;SDS011;3401;52.504;13.430;2022-07-12T08:43:39;35.50;;;23.33;;
6727;SDS011;3401;52.504;13.430;2022-07-12T08:46:07;35.87;;;23.30;;
6727;SDS011;3401;52.504;13.430;2022-07-12T08:48:36;35.10;;;23.27;;
6727;SDS011;3401;52.504;13.430;2022-07-12T08:51:05;33.33;;;22.83;;
6727;SDS011;3401;52.504;13.430;2022-07-12T08:53:38;34.43;;;23.17;;
6727;SDS011;3401;52.504;13.430;2022-07-12T08:56:07;34.03;;;22.87;;
6727;SDS011;3401;52.504;13.430;2022-07-12T08:59:08;37.03;;;24.60;;
6727;SDS011;3401;52.504;13.430;2022-07-12T09:01:40;36.13;;;24.77;;
6727;SDS011;3401;52.504;13.430;2022-07-12T09:04:09;34.33;;;24.37;;
6727;SDS011;3401;52.504;13.430;2022-07-12T09:06:38;35.33;;;24.50;;
6727;SDS011;3401;52.504;13.430;2022-07-12T09:09:07;32.63;;;22.43;;
6727;SDS011;3401;52.504;13.430;2022-07-12T09:11:36;33.67;;;23.23;;
6727;SDS011;3401;52.504;13.430;2022-07-12T09:14:05;32.97;;;22.73;;
6727;SDS011;3401;52.504;13.430;2022-07-12T09:16:34;33.20;;;23.27;;
6727;SDS011;3401;52.504;13.430;2022-07-12T09:19:11;33.47;;;23.80;;
6727;SDS011;3401;52.504;13.430;2022-07-12T09:21:47;32.30;;;23.07;;
6727;SDS011;3401;52.504;13.430;2022-07-12T09:24:19;30.77;;;22.33;;
6727;SDS011;3401;52.504;13.430;2022-07-12T09:26:47;31.27;;;22.40;;
6727;SDS011;3401;52.504;13.430;2022-07-12T09:29:16;30.93;;;22.40;;
6727;SDS011;3401;52.504;13.430;2022-07-12T09:31:47;31.60;;;23.27;;
6727;SDS011;3401;52.504;13.430;2022-07-12T09:34:33;33.43;;;23.53;;
6727;SDS011;3401;52.504;13.430;2022-07-12T09:37:19;31.17;;;22.63;;
6727;SDS011;3401;52.504;13.430;2022-07-12T09:39:49;32.07;;;23.60;;
6727;SDS011;3401;52.504;13.430;2022-07-12T09:42:20;31.87;;;23.77;;
6727;SDS011;3401;52.504;13.430;2022-07-12T09:44:54;31.17;;;22.77;;
6727;SDS011;3401;52.504;13.430;2022-07-12T09:47:23;28.60;;;21.37;;
6727;SDS011;3401;52.504;13.430;2022-07-12T09:49:51;28.27;;;21.17;;
6727;SDS011;3401;52.504;13.430;2022-07-12T09:52:20;29.10;;;22.20;;
6727;SDS011;3401;52.504;13.430;2022-07-12T09:54:51;29.80;;;22.23;;
6727;SDS011;3401;52.504;13.430;2022-07-12T09:57:20;35.43;;;24.20;;
6727;SDS011;3401;52.504;13.430;2022-07-12T09:59:49;37.13;;;26.17;;
6727;SDS011;3401;52.504;13.430;2022-07-12T10:02:19;35.63;;;24.03;;
6727;SDS011;3401;52.504;13.430;2022-07-12T10:04:50;37.20;;;24.77;;
6727;SDS011;3401;52.504;13.430;2022-07-12T10:07:21;36.90;;;24.40;;
6727;SDS011;3401;52.504;13.430;2022-07-12T10:09:52;33.10;;;22.80;;
6727;SDS011;3401;52.504;13.430;2022-07-12T10:12:20;31.73;;;22.60;;
6727;SDS011;3401;52.504;13.430;2022-07-12T10:14:51;31.93;;;22.07;;
6727;SDS011;3401;52.504;13.430;2022-07-12T10:17:22;33.33;;;23.17;;
6727;SDS011;3401;52.504;13.430;2022-07-12T10:20:05;32.97;;;22.93;;
6727;SDS011;3401;52.504;13.430;2022-07-12T10:22:40;33.53;;;23.10;;
6727;SDS011;3401;52.504;13.430;2022-07-12T10:28:04;32.73;;;22.33;;
6727;SDS011;3401;52.504;13.430;2022-07-12T10:30:40;30.90;;;22.40;;
6727;SDS011;3401;52.504;13.430;2022-07-12T10:33:14;30.90;;;22.33;;
6727;SDS011;3401;52.504;13.430;2022-07-12T10:35:57;29.73;;;21.80;;
6727;SDS011;3401;52.504;13.430;2022-07-12T10:38:26;30.43;;;22.03;;
6727;SDS011;3401;52.504;13.430;2022-07-12T10:40:56;48.97;;;4.63;;
6727;SDS011;3401;52.504;13.430;2022-07-12T10:43:25;9.40;;;4.90;;
6727;SDS011;3401;52.504;13.430;2022-07-12T10:46:16;5.60;;;3.47;;
6727;SDS011;3401;52.504;13.430;2022-07-12T10:48:46;4.27;;;2.20;;
6727;SDS011;3401;52.504;13.430;2022-07-12T10:51:15;4.30;;;3.03;;
6727;SDS011;3401;52.504;13.430;2022-07-12T10:53:47;3.23;;;2.27;;
6727;SDS011;3401;52.504;13.430;2022-07-12T10:56:21;3.60;;;2.73;;
6727;SDS011;3401;52.504;13.430;2022-07-12T10:58:56;40.97;;;38.13;;
6727;SDS011;3401;52.504;13.430;2022-07-12T11:01:27;9.53;;;8.50;;
6727;SDS011;3401;52.504;13.430;2022-07-12T11:03:56;6.33;;;4.70;;
6727;SDS011;3401;52.504;13.430;2022-07-12T11:06:33;15.47;;;13.97;;
6727;SDS011;3401;52.504;13.430;2022-07-12T11:09:02;6.53;;;5.87;;
6727;SDS011;3401;52.504;13.430;2022-07-12T11:11:33;7.70;;;6.00;;
6727;SDS011;3401;52.504;13.430;2022-07-12T11:14:02;14.90;;;11.73;;
6727;SDS011;3401;52.504;13.430;2022-07-12T11:16:30;15.30;;;13.70;;
6727;SDS011;3401;52.504;13.430;2022-07-12T11:18:59;13.30;;;11.90;;
6727;SDS011;3401;52.504;13.430;2022-07-12T11:21:33;10.53;;;4.13;;
6727;SDS011;3401;52.504;13.430;2022-07-12T11:24:01;6.40;;;4.43;;
6727;SDS011;3401;52.504;13.430;2022-07-12T11:26:29;6.33;;;5.80;;
6727;SDS011;3401;52.504;13.430;2022-07-12T11:29:02;10.40;;;3.90;;
6727;SDS011;3401;52.504;13.430;2022-07-12T11:31:29;6.80;;;4.17;;
6727;SDS011;3401;52.504;13.430;2022-07-12T11:33:57;6.10;;;3.83;;
6727;SDS011;3401;52.504;13.430;2022-07-12T11:36:26;6.20;;;4.60;;
6727;SDS011;3401;52.504;13.430;2022-07-12T11:38:54;3.40;;;2.40;;
6727;SDS011;3401;52.504;13.430;2022-07-12T11:41:22;6.67;;;3.40;;
6727;SDS011;3401;52.504;13.430;2022-07-12T11:43:52;2.40;;;2.00;;
6727;SDS011;3401;52.504;13.430;2022-07-12T11:46:19;4.30;;;2.40;;
6727;SDS011;3401;52.504;13.430;2022-07-12T11:48:47;7.37;;;5.20;;
6727;SDS011;3401;52.504;13.430;2022-07-12T11:51:15;3.53;;;2.40;;
6727;SDS011;3401;52.504;13.430;2022-07-12T11:53:43;2.73;;;1.53;;
6727;SDS011;3401;52.504;13.430;2022-07-12T11:56:28;3.67;;;1.80;;
6727;SDS011;3401;52.504;13.430;2022-07-12T11:58:58;2.73;;;2.00;;
6727;SDS011;3401;52.504;13.430;2022-07-12T12:01:26;2.00;;;1.47;;
6727;SDS011;3401;52.504;13.430;2022-07-12T12:03:53;5.33;;;2.80;;
6727;SDS011;3401;52.504;13.430;2022-07-12T12:06:25;6.30;;;1.90;;
6727;SDS011;3401;52.504;13.430;2022-07-12T12:08:53;5.10;;;2.53;;
6727;SDS011;3401;52.504;13.430;2022-07-12T12:11:26;4.47;;;2.80;;
6727;SDS011;3401;52.504;13.430;2022-07-12T12:13:55;3.33;;;2.23;;
6727;SDS011;3401;52.504;13.430;2022-07-12T12:16:25;3.63;;;2.37;;
6727;SDS011;3401;52.504;13.430;2022-07-12T12:18:55;3.60;;;2.30;;
6727;SDS011;3401;52.504;13.430;2022-07-12T12:21:25;1.73;;;1.60;;
6727;SDS011;3401;52.504;13.430;2022-07-12T12:24:07;5.03;;;2.87;;
6727;SDS011;3401;52.504;13.430;2022-07-12T12:26:35;4.03;;;2.53;;
6727;SDS011;3401;52.504;13.430;2022-07-12T12:29:05;6.03;;;2.80;;
6727;SDS011;3401;52.504;13.430;2022-07-12T12:31:33;6.57;;;4.00;;
6727;SDS011;3401;52.504;13.430;2022-07-12T12:34:01;14.50;;;13.10;;
6727;SDS011;3401;52.504;13.430;2022-07-12T12:36:37;7.13;;;5.77;;
6727;SDS011;3401;52.504;13.430;2022-07-12T12:39:05;5.63;;;5.10;;
6727;SDS011;3401;52.504;13.430;2022-07-12T12:41:37;6.30;;;3.30;;
6727;SDS011;3401;52.504;13.430;2022-07-12T12:44:10;4.50;;;3.43;;
6727;SDS011;3401;52.504;13.430;2022-07-12T12:46:46;7.50;;;4.20;;
6727;SDS011;3401;52.504;13.430;2022-07-12T12:49:14;5.17;;;3.63;;
6727;SDS011;3401;52.504;13.430;2022-07-12T12:51:52;10.27;;;7.13;;
6727;SDS011;3401;52.504;13.430;2022-07-12T12:54:33;7.10;;;3.33;;
6727;SDS011;3401;52.504;13.430;2022-07-12T12:57:02;9.97;;;3.30;;
6727;SDS011;3401;52.504;13.430;2022-07-12T12:59:32;5.27;;;3.60;;
6727;SDS011;3401;52.504;13.430;2022-07-12T13:02:01;10.27;;;5.47;;
6727;SDS011;3401;52.504;13.430;2022-07-12T13:04:30;5.57;;;4.17;;
6727;SDS011;3401;52.504;13.430;2022-07-12T13:06:58;6.50;;;3.50;;
6727;SDS011;3401;52.504;13.430;2022-07-12T13:09:30;7.30;;;3.93;;
6727;SDS011;3401;52.504;13.430;2022-07-12T13:11:58;5.53;;;3.57;;
6727;SDS011;3401;52.504;13.430;2022-07-12T13:14:26;10.07;;;5.00;;
6727;SDS011;3401;52.504;13.430;2022-07-12T13:16:56;7.70;;;3.63;;
6727;SDS011;3401;52.504;13.430;2022-07-12T13:19:24;16.37;;;14.93;;
6727;SDS011;3401;52.504;13.430;2022-07-12T13:21:52;13.00;;;11.50;;
6727;SDS011;3401;52.504;13.430;2022-07-12T13:24:20;11.00;;;7.63;;
6727;SDS011;3401;52.504;13.430;2022-07-12T13:26:48;11.87;;;9.40;;
6727;SDS011;3401;52.504;13.430;2022-07-12T13:29:16;4.03;;;2.13;;
6727;SDS011;3401;52.504;13.430;2022-07-12T13:31:44;7.30;;;4.47;;
6727;SDS011;3401;52.504;13.430;2022-07-12T13:34:20;7.30;;;4.90;;
6727;SDS011;3401;52.504;13.430;2022-07-12T13:36:48;77.23;;;71.73;;
6727;SDS011;3401;52.504;13.430;2022-07-12T13:39:16;157.67;;;146.17;;
6727;SDS011;3401;52.504;13.430;2022-07-12T13:41:58;224.30;;;207.17;;
6727;SDS011;3401;52.504;13.430;2022-07-12T13:44:25;266.57;;;245.97;;
6727;SDS011;3401;52.504;13.430;2022-07-12T13:46:53;236.63;;;218.20;;
6727;SDS011;3401;52.504;13.430;2022-07-12T13:49:23;311.80;;;286.50;;
6727;SDS011;3401;52.504;13.430;2022-07-12T13:51:50;359.60;;;329.17;;
6727;SDS011;3401;52.504;13.430;2022-07-12T13:54:18;253.77;;;234.30;;
6727;SDS011;3401;52.504;13.430;2022-07-12T13:56:47;268.73;;;247.97;;
6727;SDS011;3401;52.504;13.430;2022-07-12T13:59:15;317.97;;;291.87;;
6727;SDS011;3401;52.504;13.430;2022-07-12T14:01:43;637.87;;;580.27;;
6727;SDS011;3401;52.504;13.430;2022-07-12T14:04:11;946.73;;;868.33;;
6727;SDS011;3401;52.504;13.430;2022-07-12T14:06:40;1222.03;;;999.90;;
6727;SDS011;3401;52.504;13.430;2022-07-12T14:09:08;1195.27;;;999.90;;
6727;SDS011;3401;52.504;13.430;2022-07-12T14:11:35;1236.80;;;999.90;;
6727;SDS011;3401;52.504;13.430;2022-07-12T14:14:03;1217.47;;;999.90;;
6727;SDS011;3401;52.504;13.430;2022-07-12T14:16:31;1188.23;;;999.90;;
6727;SDS011;3401;52.504;13.430;2022-07-12T14:19:00;1235.23;;;999.90;;
6727;SDS011;3401;52.504;13.430;2022-07-12T14:21:28;1259.30;;;999.90;;
6727;SDS011;3401;52.504;13.430;2022-07-12T14:23:57;1264.77;;;999.90;;
6727;SDS011;3401;52.504;13.430;2022-07-12T14:26:27;1276.83;;;999.90;;
6727;SDS011;3401;52.504;13.430;2022-07-12T14:28:55;1287.23;;;999.90;;
6727;SDS011;3401;52.504;13.430;2022-07-12T14:31:23;1289.40;;;999.90;;
6727;SDS011;3401;52.504;13.430;2022-07-12T14:33:51;1274.97;;;999.90;;
6727;SDS011;3401;52.504;13.430;2022-07-12T14:36:19;1262.93;;;999.90;;
6727;SDS011;3401;52.504;13.430;2022-07-12T14:38:47;1266.33;;;999.90;;
6727;SDS011;3401;52.504;13.430;2022-07-12T14:41:20;1297.73;;;999.90;;
6727;SDS011;3401;52.504;13.430;2022-07-12T14:43:48;1290.27;;;999.90;;
6727;SDS011;3401;52.504;13.430;2022-07-12T14:46:16;1268.70;;;999.90;;
6727;SDS011;3401;52.504;13.430;2022-07-12T14:48:44;1306.70;;;999.90;;
6727;SDS011;3401;52.504;13.430;2022-07-12T14:51:12;1281.57;;;999.90;;